Time;durP1;ratioP1;P1;durP2;ratioP2;P2;SDS_P1;SDS_P2;PMS_P1;PMS_P2;Temp;Humidity;BMP_temperature;BMP_pressure;BME280_temperature;BME280_humidity;BME280_pressure;Samples;Min_cycle;Max_cycle;Signal;HPM_P1;HPM_P2
2022/02/12 00:00:12;;;;;;;16.70;7.18;;;3.70;99.90;;;;;;5113619;28;20028;-62
2022/02/12 00:02:38;;;;;;;15.38;7.55;;;3.60;99.90;;;;;;5113751;28;20431;-62
2022/02/12 00:05:05;;;;;;;19.70;8.02;;;3.40;99.90;;;;;;5113534;28;20058;-62
2022/02/12 00:07:31;;;;;;;;;;;3.30;99.90;;;;;;5095571;28;20134;-62
2022/02/12 00:09:56;;;;;;;17.38;7.53;;;3.20;99.90;;;;;;5113885;28;19904;-62
2022/02/12 00:12:22;;;;;;;13.67;7.57;;;3.10;99.90;;;;;;5113511;28;20040;-63
2022/02/12 00:14:48;;;;;;;19.23;8.23;;;3.10;99.90;;;;;;5115691;28;20058;-62
2022/02/12 00:17:13;;;;;;;14.15;6.68;;;3.00;99.90;;;;;;5115191;28;20031;-63
2022/02/12 00:19:39;;;;;;;16.55;7.55;;;3.00;99.90;;;;;;5115898;28;20028;-61
2022/02/12 00:22:05;;;;;;;24.07;7.80;;;3.00;99.90;;;;;;5097062;28;20035;-60
2022/02/12 00:24:30;;;;;;;18.57;8.47;;;3.00;99.90;;;;;;5113576;28;20090;-60
2022/02/12 00:26:56;;;;;;;15.10;6.90;;;2.90;99.90;;;;;;5095147;28;20391;-60
2022/02/12 00:29:21;;;;;;;13.63;6.93;;;3.00;99.90;;;;;;5113328;28;20023;-60
2022/02/12 00:31:47;;;;;;;18.37;7.77;;;3.00;99.90;;;;;;5113542;28;20081;-62
2022/02/12 00:34:13;;;;;;;13.63;7.13;;;2.90;99.90;;;;;;5113142;28;20059;-64
2022/02/12 00:36:38;;;;;;;13.50;7.07;;;2.90;99.90;;;;;;5113067;28;20047;-62
2022/02/12 00:39:05;;;;;;;16.20;7.83;;;2.80;99.90;;;;;;5115790;28;20053;-61
2022/02/12 00:41:31;;;;;;;14.63;7.95;;;2.80;99.90;;;;;;5118348;28;20027;-61
2022/02/12 00:43:57;;;;;;;16.50;8.18;;;2.70;99.90;;;;;;5115380;28;20031;-62
2022/02/12 00:46:23;;;;;;;15.40;7.72;;;2.60;99.90;;;;;;5113439;28;20020;-62
2022/02/12 00:48:48;;;;;;;16.17;7.40;;;2.60;99.90;;;;;;5113283;28;20084;-62
2022/02/12 00:51:14;;;;;;;17.23;7.50;;;2.50;99.90;;;;;;5113227;28;20118;-62
2022/02/12 00:53:40;;;;;;;19.13;7.38;;;2.50;99.90;;;;;;5113555;28;20034;-63
2022/02/12 00:56:07;;;;;;;14.57;7.32;;;2.30;99.90;;;;;;5112927;28;20028;-62
2022/02/12 00:58:32;;;;;;;16.63;8.13;;;2.20;99.90;;;;;;5112937;28;20475;-61
2022/02/12 01:00:58;;;;;;;14.93;7.43;;;2.10;99.90;;;;;;5113403;28;20027;-60
2022/02/12 01:03:24;;;;;;;20.70;8.23;;;2.00;99.90;;;;;;5094808;28;20617;-61
2022/02/12 01:05:49;;;;;;;20.10;8.47;;;2.00;99.90;;;;;;5115214;28;20480;-61
2022/02/12 01:08:15;;;;;;;21.00;7.70;;;1.90;99.90;;;;;;5098630;28;20483;-61
2022/02/12 01:10:41;;;;;;;13.90;7.87;;;1.90;99.90;;;;;;5116577;28;20024;-61
2022/02/12 01:13:06;;;;;;;15.17;8.50;;;1.90;99.90;;;;;;5116452;28;20292;-61
2022/02/12 01:15:33;;;;;;;19.77;8.23;;;1.90;99.90;;;;;;5097989;28;20492;-62
2022/02/12 01:17:59;;;;;;;22.77;9.10;;;1.80;99.90;;;;;;5116326;28;20020;-60
2022/02/12 01:20:25;;;;;;;17.98;8.57;;;1.70;99.90;;;;;;5116393;28;20035;-60
2022/02/12 01:22:50;;;;;;;20.13;8.60;;;1.60;99.90;;;;;;5116277;28;20023;-61
2022/02/12 01:25:16;;;;;;;16.07;9.17;;;1.60;99.90;;;;;;5116540;28;20103;-62
2022/02/12 01:27:42;;;;;;;17.88;8.82;;;1.50;99.90;;;;;;5116187;28;20030;-61
2022/02/12 01:30:09;;;;;;;22.73;9.30;;;1.30;99.90;;;;;;5116254;28;20031;-62
2022/02/12 01:32:36;;;;;;;16.88;8.80;;;1.20;99.90;;;;;;5116025;28;20675;-62
2022/02/12 01:35:01;;;;;;;23.15;9.68;;;1.10;99.90;;;;;;5116039;28;20083;-60
2022/02/12 01:37:27;;;;;;;20.70;9.43;;;1.00;99.90;;;;;;5097621;28;20031;-62
2022/02/12 01:39:53;;;;;;;16.95;9.55;;;1.00;99.90;;;;;;5116156;28;20019;-62
2022/02/12 01:42:19;;;;;;;21.00;9.60;;;0.90;99.90;;;;;;5116382;28;20039;-61
2022/02/12 01:44:45;;;;;;;18.83;9.03;;;0.90;99.90;;;;;;5116367;28;20090;-61
2022/02/12 01:47:11;;;;;;;;;;;1.00;99.90;;;;;;5098298;28;20031;-61
2022/02/12 01:49:39;;;;;;;21.13;9.38;;;1.00;99.90;;;;;;5097615;28;19904;-61
2022/02/12 01:52:07;;;;;;;24.77;8.73;;;1.00;99.90;;;;;;5115965;28;20174;-62
2022/02/12 01:54:32;;;;;;;20.08;8.50;;;1.00;99.90;;;;;;5097397;28;20037;-61
2022/02/12 01:57:01;;;;;;;17.08;7.90;;;1.10;99.90;;;;;;5115674;28;20098;-62
2022/02/12 01:59:27;;;;;;;18.58;7.90;;;1.10;99.90;;;;;;5115658;28;20391;-62
2022/02/12 02:01:53;;;;;;;14.18;6.88;;;1.10;99.90;;;;;;5115635;28;20020;-59
2022/02/12 02:04:19;;;;;;;15.23;7.20;;;1.10;99.90;;;;;;5115494;28;20030;-62
2022/02/12 02:06:47;;;;;;;17.38;8.23;;;1.00;99.90;;;;;;5097078;28;20016;-62
2022/02/12 02:09:14;;;;;;;17.77;7.78;;;0.90;99.90;;;;;;5096787;28;20040;-62
2022/02/12 02:11:40;;;;;;;16.63;7.20;;;0.90;99.90;;;;;;5115515;28;20491;-61
2022/02/12 02:14:06;;;;;;;15.18;6.97;;;0.80;99.90;;;;;;5115449;28;20435;-61
2022/02/12 02:16:31;;;;;;;17.27;6.43;;;0.80;99.90;;;;;;5114281;28;20116;-59
2022/02/12 02:18:57;;;;;;;15.60;6.80;;;0.80;99.90;;;;;;5096673;28;20027;-60
2022/02/12 02:21:26;;;;;;;14.23;6.40;;;0.70;99.90;;;;;;5115214;28;20027;-61
2022/02/12 02:23:53;;;;;;;22.83;7.85;;;0.70;99.90;;;;;;5096821;28;20357;-61
2022/02/12 02:26:19;;;;;;;17.35;8.00;;;0.70;99.90;;;;;;5115274;28;20444;-61
2022/02/12 02:28:46;;;;;;;;;;;0.70;99.90;;;;;;5115467;28;20031;-62
2022/02/12 02:31:12;;;;;;;15.60;6.70;;;0.70;99.90;;;;;;5115313;28;20340;-62
2022/02/12 02:33:38;;;;;;;13.13;6.30;;;0.60;99.90;;;;;;5115261;28;20267;-60
2022/02/12 02:36:03;;;;;;;18.77;7.43;;;0.60;99.90;;;;;;5115698;28;20107;-60
2022/02/12 02:38:31;;;;;;;19.90;7.00;;;0.60;99.90;;;;;;5114604;28;20019;-61
2022/02/12 02:40:57;;;;;;;12.45;6.30;;;0.60;99.90;;;;;;5114873;28;20026;-62
2022/02/12 02:43:23;;;;;;;14.77;6.50;;;0.60;99.90;;;;;;5114940;28;20114;-61
2022/02/12 02:45:49;;;;;;;18.10;6.75;;;0.60;99.90;;;;;;5114759;28;20367;-61
2022/02/12 02:48:15;;;;;;;14.23;6.88;;;0.60;99.90;;;;;;5114646;28;20571;-63
2022/02/12 02:56:12;;;;;;;13.25;6.90;;;0.50;99.90;;;;;;5115386;28;20038;-60
2022/02/12 02:58:46;;;;;;;13.85;7.72;;;0.50;99.90;;;;;;5118804;28;20050;-61
2022/02/12 03:01:17;;;;;;;14.10;6.70;;;0.40;99.90;;;;;;5097829;28;20069;-59
2022/02/12 03:03:45;;;;;;;17.73;6.82;;;0.30;99.90;;;;;;5115092;28;20027;-61
2022/02/12 03:06:12;;;;;;;12.88;6.97;;;0.30;99.90;;;;;;5114603;28;20015;-59
2022/02/12 03:08:38;;;;;;;18.23;8.48;;;0.30;99.90;;;;;;5113068;22;20540;-66
2022/02/12 03:11:05;;;;;;;15.77;8.27;;;0.30;99.90;;;;;;5094389;28;20024;-66
2022/02/12 03:13:31;;;;;;;19.30;6.95;;;0.30;99.90;;;;;;5092742;28;20025;-66
2022/02/12 03:15:57;;;;;;;17.15;7.00;;;0.40;99.90;;;;;;5094186;28;20024;-67
2022/02/12 03:18:23;;;;;;;14.88;7.72;;;0.40;99.90;;;;;;5093919;28;20472;-66
2022/02/12 03:20:49;;;;;;;14.40;7.13;;;0.40;99.90;;;;;;5093830;28;20070;-66
2022/02/12 03:23:16;;;;;;;15.60;7.05;;;0.30;99.90;;;;;;5094074;28;20047;-67
2022/02/12 03:25:42;;;;;;;18.23;8.13;;;0.20;99.90;;;;;;5094032;28;20027;-64
2022/02/12 03:28:08;;;;;;;17.10;7.55;;;0.20;99.90;;;;;;5093974;28;20095;-67
2022/02/12 03:30:41;;;;;;;19.03;7.00;;;0.10;99.90;;;;;;5093855;28;20103;-67
2022/02/12 03:33:07;;;;;;;14.43;6.60;;;0.10;99.90;;;;;;5093764;28;20028;-67
2022/02/12 03:35:35;;;;;;;16.50;7.38;;;0.00;99.90;;;;;;5093881;28;20384;-67
2022/02/12 03:38:06;;;;;;;17.63;7.32;;;0.00;99.90;;;;;;5092554;28;20020;-66
2022/02/12 03:40:33;;;;;;;16.90;7.72;;;0.00;99.90;;;;;;5092244;28;20388;-66
2022/02/12 03:42:59;;;;;;;18.65;7.65;;;0.00;99.90;;;;;;5092279;28;20115;-66
2022/02/12 03:45:24;;;;;;;15.55;7.15;;;0.00;99.90;;;;;;5093704;28;20520;-65
2022/02/12 03:47:50;;;;;;;17.13;7.63;;;0.00;99.90;;;;;;5092561;28;20020;-66
2022/02/12 03:50:16;;;;;;;18.13;7.78;;;-0.10;99.90;;;;;;5093966;28;20395;-65
2022/02/12 03:52:42;;;;;;;21.42;7.65;;;-0.10;99.90;;;;;;5093720;28;20401;-66
2022/02/12 03:55:08;;;;;;;14.70;7.20;;;-0.10;99.90;;;;;;5093764;28;20032;-66
2022/02/12 03:57:37;;;;;;;;;;;-0.10;99.90;;;;;;5094379;28;20472;-67
2022/02/12 04:00:09;;;;;;;15.05;6.47;;;-0.10;99.90;;;;;;5099410;28;19911;-66
2022/02/12 04:02:35;;;;;;;15.32;7.03;;;-0.10;99.90;;;;;;5096094;28;20020;-63
2022/02/12 04:05:01;;;;;;;18.80;7.45;;;-0.10;99.90;;;;;;5093864;28;20044;-66
2022/02/12 04:07:27;;;;;;;18.47;6.77;;;-0.10;99.90;;;;;;5093446;28;20028;-65
2022/02/12 04:09:52;;;;;;;13.47;6.00;;;-0.10;99.90;;;;;;5091988;28;20035;-66
2022/02/12 04:12:18;;;;;;;14.00;6.40;;;-0.20;99.90;;;;;;5093287;28;20059;-66
2022/02/12 04:14:44;;;;;;;13.33;7.13;;;-0.20;99.90;;;;;;5093520;28;20036;-66
2022/02/12 04:17:09;;;;;;;19.10;7.23;;;-0.20;99.90;;;;;;5093584;28;20032;-66
2022/02/12 04:19:35;;;;;;;17.05;7.57;;;-0.20;99.90;;;;;;5093533;28;20035;-66
2022/02/12 04:22:01;;;;;;;16.03;7.60;;;-0.30;99.90;;;;;;5093461;28;20035;-66
2022/02/12 04:24:26;;;;;;;18.33;7.83;;;-0.30;99.90;;;;;;5092110;28;20024;-66
2022/02/12 04:26:52;;;;;;;17.60;7.70;;;-0.40;99.90;;;;;;5093734;28;20261;-66
2022/02/12 04:29:18;;;;;;;23.23;8.60;;;-0.40;99.90;;;;;;5099995;28;20045;-66
2022/02/12 04:31:43;;;;;;;18.97;8.50;;;-0.50;99.90;;;;;;5102620;28;20150;-66
2022/02/12 04:34:09;;;;;;;19.30;8.57;;;-0.50;99.90;;;;;;5092766;28;20447;-66
2022/02/12 04:36:35;;;;;;;19.53;8.30;;;-0.50;99.90;;;;;;5093442;28;20262;-67
2022/02/12 04:39:01;;;;;;;19.75;8.07;;;-0.50;99.90;;;;;;5092982;28;20114;-66
2022/02/12 04:41:27;;;;;;;21.95;8.70;;;-0.50;99.90;;;;;;5096077;28;20032;-66
2022/02/12 04:43:52;;;;;;;16.57;8.13;;;-0.50;99.90;;;;;;5097031;28;20028;-67
2022/02/12 04:46:18;;;;;;;14.10;8.38;;;-0.60;99.90;;;;;;5097119;28;20258;-65
2022/02/12 04:48:48;;;;;;;23.80;10.63;;;-0.60;99.90;;;;;;5096868;28;20036;-66
2022/02/12 04:51:15;;;;;;;21.77;8.45;;;-0.60;99.90;;;;;;5095604;28;20028;-66
2022/02/12 04:53:41;;;;;;;16.85;9.20;;;-0.60;99.90;;;;;;5096749;28;20084;-66
2022/02/12 04:56:07;;;;;;;19.77;9.33;;;-0.60;99.90;;;;;;5095523;28;20028;-66
2022/02/12 04:58:32;;;;;;;25.10;9.37;;;-0.60;99.90;;;;;;5095446;28;20370;-66
2022/02/12 05:00:58;;;;;;;23.20;8.98;;;-0.60;99.90;;;;;;5095427;28;20042;-67
2022/02/12 05:03:25;;;;;;;20.50;8.87;;;-0.70;99.90;;;;;;5095486;28;20032;-67
2022/02/12 05:05:51;;;;;;;19.90;9.65;;;-0.70;99.90;;;;;;5096532;28;20028;-67
2022/02/12 05:08:16;;;;;;;15.50;9.07;;;-0.70;99.90;;;;;;5095076;28;20395;-66
2022/02/12 05:10:42;;;;;;;19.53;8.90;;;-0.70;99.90;;;;;;5097690;28;20076;-66
2022/02/12 05:13:07;;;;;;;15.87;9.33;;;-0.70;99.90;;;;;;5097903;28;20107;-66
2022/02/12 05:15:33;;;;;;;22.60;9.30;;;-0.70;99.90;;;;;;5096484;28;20194;-66
2022/02/12 05:17:59;;;;;;;23.53;9.63;;;-0.70;99.90;;;;;;5095871;28;20025;-65
2022/02/12 05:20:24;;;;;;;18.63;8.80;;;-0.70;99.90;;;;;;5096102;28;20487;-66
2022/02/12 05:22:50;;;;;;;22.60;9.83;;;-0.70;99.90;;;;;;5094956;28;20046;-67
2022/02/12 05:25:15;;;;;;;17.53;8.43;;;-0.70;99.90;;;;;;5094990;28;20024;-65
2022/02/12 05:27:41;;;;;;;18.47;8.97;;;-0.80;99.90;;;;;;5096068;28;20077;-68
2022/02/12 05:30:07;;;;;;;21.57;9.70;;;-0.80;99.90;;;;;;5096131;28;20442;-66
2022/02/12 05:32:33;;;;;;;20.02;9.35;;;-0.90;99.90;;;;;;5094472;28;20032;-67
2022/02/12 05:34:59;;;;;;;19.47;9.17;;;-0.90;99.90;;;;;;5096562;28;20032;-66
2022/02/12 05:37:24;;;;;;;20.23;9.20;;;-0.90;99.90;;;;;;5096063;28;20077;-66
2022/02/12 05:39:50;;;;;;;23.38;9.75;;;-0.90;99.90;;;;;;5095999;28;20110;-66
2022/02/12 05:42:16;;;;;;;19.40;10.13;;;-0.90;99.90;;;;;;5094328;28;20029;-66
2022/02/12 05:44:42;;;;;;;15.50;8.53;;;-0.90;99.90;;;;;;5095651;28;20028;-66
2022/02/12 05:47:07;;;;;;;20.27;8.43;;;-0.90;99.90;;;;;;5094228;28;20485;-66
2022/02/12 05:49:33;;;;;;;19.63;10.20;;;-0.90;99.90;;;;;;5094364;28;20031;-66
2022/02/12 05:51:58;;;;;;;18.40;9.03;;;-0.90;99.90;;;;;;5095802;28;20448;-66
2022/02/12 05:54:24;;;;;;;17.53;10.67;;;-1.00;99.90;;;;;;5094207;28;20498;-66
2022/02/12 05:56:50;;;;;;;22.10;11.40;;;-1.00;99.90;;;;;;5095183;28;20047;-66
2022/02/12 05:59:18;;;;;;;20.50;10.63;;;-1.00;99.90;;;;;;5095397;28;20443;-66
2022/02/12 06:01:44;;;;;;;18.60;11.00;;;-1.00;99.90;;;;;;5095319;28;20262;-66
2022/02/12 06:04:10;;;;;;;22.55;10.85;;;-1.00;99.90;;;;;;5095012;28;20028;-66
2022/02/12 06:06:36;;;;;;;21.23;11.18;;;-1.00;99.90;;;;;;5095184;28;20032;-66
2022/02/12 06:09:02;;;;;;;28.10;11.65;;;-1.00;99.90;;;;;;5093661;28;20027;-66
2022/02/12 06:11:27;;;;;;;30.23;11.85;;;-1.00;99.90;;;;;;5093773;28;20039;-66
2022/02/12 06:13:56;;;;;;;23.80;10.80;;;-0.90;99.90;;;;;;5093804;28;20132;-66
2022/02/12 06:16:23;;;;;;;23.67;11.43;;;-0.90;99.90;;;;;;5093685;28;20016;-66
2022/02/12 06:18:49;;;;;;;24.17;11.52;;;-0.90;99.90;;;;;;5094897;28;20024;-66
2022/02/12 06:21:15;;;;;;;29.63;12.00;;;-0.90;99.90;;;;;;5094851;28;20020;-66
2022/02/12 06:23:41;;;;;;;27.52;11.88;;;-0.90;99.90;;;;;;5095008;28;20489;-66
2022/02/12 06:26:08;;;;;;;24.23;11.23;;;-0.90;99.90;;;;;;5095035;28;20028;-66
2022/02/12 06:28:34;;;;;;;29.67;11.82;;;-0.90;99.90;;;;;;5094557;28;20024;-67
2022/02/12 06:31:03;;;;;;;23.52;10.75;;;-0.90;99.90;;;;;;5091588;28;20625;-70
2022/02/12 06:33:31;;;;;;;22.70;11.30;;;-0.90;99.90;;;;;;5093048;28;20036;-69
2022/02/12 06:35:57;;;;;;;32.60;12.75;;;-0.90;99.90;;;;;;5092415;28;20020;-69
2022/02/12 06:38:23;;;;;;;22.02;11.43;;;-0.90;99.90;;;;;;5095863;28;20020;-70
2022/02/12 06:40:51;;;;;;;21.13;11.32;;;-0.90;99.90;;;;;;5100144;28;20035;-71
2022/02/12 06:43:17;;;;;;;23.38;11.18;;;-0.90;99.90;;;;;;5099516;28;20021;-70
2022/02/12 06:45:42;;;;;;;23.10;12.23;;;-0.90;99.90;;;;;;5097311;28;20027;-69
2022/02/12 06:48:08;;;;;;;23.63;11.73;;;-0.90;99.90;;;;;;5094662;28;20062;-69
2022/02/12 06:50:33;;;;;;;24.87;11.73;;;-0.80;99.90;;;;;;5092993;28;20068;-68
2022/02/12 06:52:59;;;;;;;25.77;13.40;;;-0.80;99.90;;;;;;5094457;28;20432;-68
2022/02/12 06:55:25;;;;;;;29.03;11.23;;;-0.70;99.90;;;;;;5092768;28;20024;-68
2022/02/12 06:57:51;;;;;;;23.93;10.80;;;-0.70;99.90;;;;;;5094752;28;20056;-66
2022/02/12 07:00:18;;;;;;;26.52;12.23;;;-0.70;99.90;;;;;;5098106;28;20024;-67
2022/02/12 07:02:44;;;;;;;26.25;10.77;;;-0.60;99.90;;;;;;5096704;28;20028;-66
2022/02/12 07:05:09;;;;;;;20.60;10.53;;;-0.60;99.90;;;;;;5094348;28;20047;-66
2022/02/12 07:07:49;;;;;;;22.73;10.47;;;-0.60;99.90;;;;;;5094234;28;20024;-66
2022/02/12 07:10:16;;;;;;;23.65;11.50;;;-0.60;99.90;;;;;;5094933;28;20024;-66
2022/02/12 07:12:43;;;;;;;23.75;11.70;;;-0.60;99.90;;;;;;5093949;28;20477;-68
2022/02/12 07:15:09;;;;;;;22.67;11.07;;;-0.60;99.90;;;;;;5093783;28;20035;-67
2022/02/12 07:17:39;;;;;;;23.45;10.52;;;-0.70;99.90;;;;;;5094012;28;20034;-67
2022/02/12 07:20:06;;;;;;;23.13;10.32;;;-0.70;99.90;;;;;;5093715;28;20055;-67
2022/02/12 07:22:32;;;;;;;22.38;11.48;;;-0.70;99.90;;;;;;5093776;28;20102;-67
2022/02/12 07:24:58;;;;;;;23.73;11.20;;;-0.70;99.90;;;;;;5092449;28;20122;-66
2022/02/12 07:27:23;;;;;;;23.70;10.47;;;-0.70;99.90;;;;;;5093679;28;20039;-66
2022/02/12 07:29:49;;;;;;;23.80;10.57;;;-0.70;99.90;;;;;;5092364;28;20194;-67
2022/02/12 07:32:14;;;;;;;23.60;11.70;;;-0.70;99.90;;;;;;5093744;28;20028;-67
2022/02/12 07:34:40;;;;;;;23.73;11.23;;;-0.70;99.90;;;;;;5093836;28;20020;-67
2022/02/12 07:37:06;;;;;;;23.70;11.17;;;-0.70;99.90;;;;;;5093930;28;20104;-67
2022/02/12 07:39:32;;;;;;;28.53;12.43;;;-0.60;99.90;;;;;;5107315;28;20016;-67
2022/02/12 07:41:58;;;;;;;25.13;11.82;;;-0.60;99.90;;;;;;5099036;28;20016;-68
2022/02/12 07:44:24;;;;;;;25.90;11.30;;;-0.50;99.90;;;;;;5098009;28;20504;-67
2022/02/12 07:46:50;;;;;;;24.63;11.30;;;-0.40;99.90;;;;;;5098007;28;20028;-67
2022/02/12 07:49:16;;;;;;;21.05;10.80;;;-0.40;99.90;;;;;;5093431;28;20028;-67
2022/02/12 07:51:42;;;;;;;22.25;11.25;;;-0.30;99.90;;;;;;5092318;28;20031;-67
2022/02/12 07:54:08;;;;;;;19.23;11.27;;;-0.20;99.90;;;;;;5093110;28;20365;-68
2022/02/12 07:56:33;;;;;;;27.33;11.93;;;-0.20;99.90;;;;;;5091744;28;20627;-66
2022/02/12 07:58:59;;;;;;;22.67;11.40;;;-0.10;99.90;;;;;;5091768;28;20028;-67
2022/02/12 08:01:25;;;;;;;25.80;12.37;;;-0.10;99.90;;;;;;5091857;28;20027;-67
2022/02/12 08:03:50;;;;;;;23.35;11.30;;;-0.10;99.90;;;;;;5092923;28;20020;-67
2022/02/12 08:09:02;;;;;;;25.73;12.32;;;0.10;99.90;;;;;;5093101;28;20071;-73
2022/02/12 08:11:35;;;;;;;24.17;12.15;;;0.10;99.90;;;;;;5091934;28;20455;-72
2022/02/12 08:14:00;;;;;;;21.13;11.48;;;0.10;99.90;;;;;;5093132;28;20119;-71
2022/02/12 08:16:26;;;;;;;22.97;11.03;;;0.20;99.90;;;;;;5097591;28;20030;-70
2022/02/12 08:18:51;;;;;;;25.50;12.03;;;0.30;99.90;;;;;;5096212;28;20028;-65
2022/02/12 08:21:17;;;;;;;22.43;11.20;;;0.40;99.90;;;;;;5095799;28;20066;-66
2022/02/12 08:23:43;;;;;;;30.20;12.57;;;0.50;99.90;;;;;;5096935;28;20077;-66
2022/02/12 08:26:09;;;;;;;23.10;10.73;;;0.60;99.90;;;;;;5097003;28;20100;-66
2022/02/12 08:28:34;;;;;;;29.17;11.68;;;0.70;99.90;;;;;;5096029;28;20093;-66
2022/02/12 08:31:00;;;;;;;21.07;11.60;;;0.70;99.90;;;;;;5095907;28;20435;-66
2022/02/12 08:33:26;;;;;;;21.43;10.00;;;0.80;99.90;;;;;;5096793;28;20028;-66
2022/02/12 08:35:51;;;;;;;22.05;11.02;;;0.80;99.90;;;;;;5097124;28;20388;-66
2022/02/12 08:38:17;;;;;;;23.92;10.27;;;0.90;99.90;;;;;;5096671;28;20153;-67
2022/02/12 08:40:43;;;;;;;19.93;9.60;;;0.90;99.90;;;;;;5096853;28;20392;-66
2022/02/12 08:43:11;;;;;;;21.10;10.20;;;1.00;99.90;;;;;;5096856;28;20073;-66
2022/02/12 08:45:38;;;;;;;21.70;9.88;;;1.00;99.90;;;;;;5096681;28;20016;-67
2022/02/12 08:48:06;;;;;;;17.25;9.43;;;1.10;99.90;;;;;;5095242;28;20028;-66
2022/02/12 08:50:31;;;;;;;21.15;9.82;;;1.20;99.90;;;;;;5096581;28;20498;-66
2022/02/12 08:52:57;;;;;;;19.23;9.37;;;1.30;99.90;;;;;;5095775;28;20123;-68
2022/02/12 08:55:24;;;;;;;17.70;9.33;;;1.30;99.90;;;;;;5095422;28;20024;-68
2022/02/12 08:57:50;;;;;;;17.38;9.15;;;1.40;99.90;;;;;;5095073;28;20058;-67
2022/02/12 09:00:16;;;;;;;19.83;9.83;;;1.40;99.90;;;;;;5095324;28;20028;-67
2022/02/12 09:02:42;;;;;;;20.15;10.88;;;1.50;99.90;;;;;;5101817;28;20046;-67
2022/02/12 09:05:08;;;;;;;21.83;10.10;;;1.60;99.90;;;;;;5106430;28;20024;-67
2022/02/12 09:07:34;;;;;;;21.20;9.35;;;1.70;99.90;;;;;;5102545;28;20040;-68
2022/02/12 09:10:01;;;;;;;26.17;9.93;;;1.70;99.90;;;;;;5096771;28;20527;-67
2022/02/12 09:12:28;;;;;;;26.05;9.70;;;1.80;99.90;;;;;;5094726;28;20027;-68
2022/02/12 09:14:54;;;;;;;19.77;9.27;;;1.90;99.90;;;;;;5094923;28;20024;-67
2022/02/12 09:17:19;;;;;;;17.90;9.20;;;2.00;99.90;;;;;;5096222;28;20073;-67
2022/02/12 09:19:45;;;;;;;21.80;9.60;;;2.10;99.90;;;;;;5094788;28;20016;-67
2022/02/12 09:22:11;;;;;;;21.60;9.10;;;2.20;99.90;;;;;;5094765;28;20388;-67
2022/02/12 09:24:37;;;;;;;18.40;8.97;;;2.20;99.90;;;;;;5095965;28;20258;-67
2022/02/12 09:27:04;;;;;;;21.67;8.70;;;2.40;99.90;;;;;;5095361;28;20521;-67
2022/02/12 09:29:29;;;;;;;17.05;8.45;;;2.50;99.90;;;;;;5096305;28;20429;-68
2022/02/12 09:31:55;;;;;;;18.23;8.93;;;2.70;99.90;;;;;;5094743;28;20016;-67
2022/02/12 09:34:21;;;;;;;20.37;7.40;;;2.80;99.90;;;;;;5094579;28;20472;-67
2022/02/12 09:36:46;;;;;;;13.53;7.97;;;2.90;99.90;;;;;;5095763;28;20016;-67
2022/02/12 09:39:12;;;;;;;30.13;8.87;;;3.10;99.90;;;;;;5094377;28;20036;-68
2022/02/12 09:41:37;;;;;;;15.63;7.50;;;3.30;99.90;;;;;;5095813;28;20028;-68
2022/02/12 09:44:04;;;;;;;13.57;5.90;;;4.00;99.90;;;;;;5095440;28;20070;-68
2022/02/12 09:46:52;;;;;;;12.68;6.13;;;4.70;99.90;;;;;;5094368;28;20208;-68
2022/02/12 09:49:18;;;;;;;13.95;6.32;;;5.80;99.90;;;;;;5097419;28;20020;-69
2022/02/12 09:51:44;;;;;;;11.57;5.60;;;7.10;99.90;;;;;;5096365;28;20127;-67
2022/02/12 09:54:10;;;;;;;12.70;5.35;;;8.00;99.90;;;;;;5095553;28;20089;-67
2022/02/12 09:56:36;;;;;;;12.75;5.47;;;8.30;99.90;;;;;;5095556;28;20028;-67
2022/02/12 09:59:01;;;;;;;12.10;5.85;;;8.70;99.80;;;;;;5093794;28;20028;-67
2022/02/12 10:01:27;;;;;;;12.52;5.80;;;8.80;99.60;;;;;;5095344;28;20024;-67
2022/02/12 10:03:53;;;;;;;12.17;5.63;;;8.50;99.90;;;;;;5093547;28;20024;-67
2022/02/12 10:06:39;;;;;;;13.40;5.60;;;8.60;99.90;;;;;;5093798;28;20024;-68
2022/02/12 10:09:06;;;;;;;12.55;5.03;;;8.70;98.80;;;;;;5093620;28;20404;-67
2022/02/12 10:11:49;;;;;;;11.75;5.25;;;8.20;99.00;;;;;;5093567;28;20028;-67
2022/02/12 10:14:22;;;;;;;11.75;4.68;;;8.60;98.10;;;;;;5095225;28;20038;-67
2022/02/12 10:16:54;;;;;;;10.75;5.38;;;9.20;98.70;;;;;;5095104;28;20020;-67
2022/02/12 10:19:33;;;;;;;14.63;5.40;;;9.90;96.10;;;;;;5094895;28;20069;-69
2022/02/12 10:22:05;;;;;;;13.35;4.68;;;11.50;92.90;;;;;;5095391;28;20016;-67
2022/02/12 10:25:05;;;;;;;14.02;4.82;;;12.00;91.00;;;;;;5095067;28;20122;-67
2022/02/12 10:27:31;;;;;;;12.20;4.72;;;12.60;89.00;;;;;;5060910;28;20131;-67
2022/02/12 10:30:03;;;;;;;9.10;4.28;;;12.00;88.70;;;;;;5094503;28;20090;-67
2022/02/12 10:32:29;;;;;;;11.02;4.45;;;11.70;89.40;;;;;;5094731;28;20020;-67
2022/02/12 10:34:56;;;;;;;13.70;5.60;;;11.70;90.00;;;;;;5093347;28;20075;-67
2022/02/12 10:37:23;;;;;;;10.65;4.63;;;12.40;86.20;;;;;;5094086;28;20052;-67
2022/02/12 10:39:49;;;;;;;11.13;4.47;;;13.00;85.40;;;;;;5093251;28;20109;-67
2022/02/12 10:42:18;;;;;;;9.75;4.57;;;13.10;81.10;;;;;;5095308;28;20024;-68
2022/02/12 10:44:45;;;;;;;12.10;4.50;;;11.70;84.90;;;;;;5095045;28;20274;-68
2022/02/12 10:47:13;;;;;;;12.25;4.40;;;11.80;86.90;;;;;;5093467;28;20394;-68
2022/02/12 10:49:40;;;;;;;11.15;4.32;;;11.90;85.20;;;;;;5093667;28;20395;-67
2022/02/12 10:52:06;;;;;;;9.48;4.65;;;12.30;85.30;;;;;;5094713;28;20047;-67
2022/02/12 10:54:46;;;;;;;11.23;4.55;;;12.00;84.20;;;;;;5099000;28;20095;-71
2022/02/12 10:57:14;;;;;;;10.93;5.05;;;12.20;83.90;;;;;;5096807;28;20083;-72
2022/02/12 10:59:44;;;;;;;12.23;4.95;;;11.50;86.30;;;;;;5100199;28;20027;-72
2022/02/12 11:02:13;;;;;;;13.00;4.57;;;11.10;88.90;;;;;;5098546;28;20012;-71
2022/02/12 11:04:40;;;;;;;14.38;4.57;;;11.10;90.00;;;;;;5094704;28;20019;-72
2022/02/12 11:07:07;;;;;;;10.50;4.70;;;10.90;90.30;;;;;;5093283;28;20017;-70
2022/02/12 11:09:33;;;;;;;10.85;4.85;;;11.10;90.80;;;;;;5092777;28;20036;-69
2022/02/12 11:12:04;;;;;;;9.63;4.23;;;11.20;88.70;;;;;;5094838;28;20027;-70
2022/02/12 11:14:35;;;;;;;12.95;5.30;;;10.20;90.80;;;;;;5094067;28;20384;-69
2022/02/12 11:17:03;;;;;;;8.27;3.97;;;9.20;92.90;;;;;;5093996;28;20158;-69
2022/02/12 11:19:31;;;;;;;9.52;5.53;;;8.80;94.70;;;;;;5094025;28;20477;-68
2022/02/12 11:21:57;;;;;;;11.07;5.30;;;8.30;95.70;;;;;;5092722;28;20115;-69
2022/02/12 11:24:36;;;;;;;11.45;5.30;;;7.70;97.50;;;;;;5092799;28;20166;-69
2022/02/12 11:27:18;;;;;;;11.00;5.20;;;7.40;99.60;;;;;;5093934;28;20055;-69
2022/02/12 11:29:45;;;;;;;9.95;5.20;;;7.00;99.90;;;;;;5093871;28;20362;-69
2022/02/12 11:32:19;;;;;;;14.60;5.93;;;7.00;99.90;;;;;;5093409;28;20380;-70
2022/02/12 11:34:59;;;;;;;11.45;4.97;;;7.00;99.90;;;;;;5094302;28;20360;-69
2022/02/12 11:37:35;;;;;;;13.23;4.88;;;6.80;99.90;;;;;;5093870;28;20051;-69
2022/02/12 11:40:14;;;;;;;9.80;4.72;;;6.60;99.90;;;;;;5092521;28;20017;-69
2022/02/12 11:42:44;;;;;;;9.85;5.38;;;6.60;99.90;;;;;;5092192;28;20020;-69
2022/02/12 11:45:29;;;;;;;14.60;5.10;;;6.50;99.90;;;;;;5093693;28;20020;-68
2022/02/12 11:48:11;;;;;;;12.30;5.53;;;6.40;99.90;;;;;;5093475;28;20027;-69
2022/02/12 11:50:55;;;;;;;11.63;5.35;;;6.40;99.90;;;;;;5093366;28;20088;-69
2022/02/12 11:53:37;;;;;;;8.75;4.55;;;6.40;99.90;;;;;;5093322;28;20020;-68
2022/02/12 11:56:29;;;;;;;13.63;5.10;;;6.50;99.90;;;;;;5093362;28;20099;-69
2022/02/12 11:58:58;;;;;;;11.68;5.05;;;6.50;99.90;;;;;;5076864;28;20044;-71
2022/02/12 12:01:32;;;;;;;11.25;4.80;;;6.50;99.90;;;;;;5093550;28;20078;-70
2022/02/12 12:04:05;;;;;;;13.70;5.47;;;6.50;99.90;;;;;;5092335;28;20039;-70
2022/02/12 12:06:31;;;;;;;12.70;5.30;;;6.40;99.90;;;;;;5093534;28;20043;-67
2022/02/12 12:09:08;;;;;;;11.43;4.95;;;6.40;99.90;;;;;;5093245;28;20040;-69
2022/02/12 12:11:35;;;;;;;12.40;4.53;;;6.50;99.90;;;;;;5092032;28;20115;-68
2022/02/12 12:14:23;;;;;;;12.55;5.07;;;6.50;99.90;;;;;;5093153;28;20039;-69
2022/02/12 12:16:58;;;;;;;10.80;4.88;;;6.40;99.90;;;;;;5095205;28;20103;-67
2022/02/12 12:19:38;;;;;;;11.60;5.30;;;6.50;99.90;;;;;;5093908;28;20055;-68
2022/02/12 12:22:10;;;;;;;11.18;4.95;;;6.60;99.90;;;;;;5093173;28;20121;-68
2022/02/12 12:24:37;;;;;;;11.25;5.55;;;6.70;99.90;;;;;;5093475;28;20016;-68
2022/02/12 12:27:03;;;;;;;;;;;6.60;99.90;;;;;;5093748;28;20031;-68
2022/02/12 12:32:20;;;;;;;10.52;5.03;;;6.60;99.90;;;;;;5093086;28;20090;-68
2022/02/12 12:34:52;;;;;;;11.50;4.95;;;6.70;99.90;;;;;;5091705;28;20055;-69
2022/02/12 12:37:23;;;;;;;11.82;4.97;;;6.70;99.90;;;;;;5093021;28;20375;-68
2022/02/12 12:39:50;;;;;;;12.98;4.63;;;6.80;99.90;;;;;;5091895;28;20017;-68
2022/02/12 12:42:20;;;;;;;15.80;4.93;;;6.90;99.90;;;;;;5092886;28;20069;-68
2022/02/12 12:44:59;;;;;;;12.60;4.57;;;6.90;99.90;;;;;;5093241;28;20020;-69
2022/02/12 12:47:25;;;;;;;10.65;4.82;;;7.00;99.90;;;;;;5092897;28;20459;-68
2022/02/12 12:49:55;;;;;;;;;;;7.10;99.90;;;;;;5094071;28;20027;-69
2022/02/12 12:52:25;;;;;;;14.50;4.47;;;7.30;99.90;;;;;;5091923;28;19904;-67
2022/02/12 12:54:56;;;;;;;11.85;4.63;;;7.40;99.70;;;;;;5091510;28;20016;-69